Terminal Aerodrome Forecast
Issued by NWS Charleston, WV

Current Version | Previous Version | Graphics & Text | Print | Product List | Glossary On
Versions: 1 2 3 4 5 6 7 8 9 10 11 12 13 14 15 16 17 18 19 20 21 22 23 24
197
FTUS41 KRLX 251141
TAFBKW
TAF
KBKW 251141Z 2512/2612 22006KT P6SM SCT008 BKN015
     FM251400 24011G17KT P6SM OVC020
     FM252100 24011G17KT 6SM SHRA OVC012
     FM260300 28012G18KT P6SM SHRA OVC009=

USA.gov is the U.S. government's official web portal to all federal, state and local government web resources and services.